Time;durP1;ratioP1;P1;durP2;ratioP2;P2;SDS_P1;SDS_P2;PMS_P1;PMS_P2;Temp;Humidity;BMP_temperature;BMP_pressure;BME280_temperature;BME280_humidity;BME280_pressure;Samples;Min_cycle;Max_cycle;Signal;HPM_P1;HPM_P2
2023/08/25 00:00:20;;;;;;;9.90;7.57;;;;;;;;;;5062227;27;87544;-61
2023/08/25 00:02:49;;;;;;;10.20;6.73;;;;;;;;;;5061653;27;89525;-61
2023/08/25 00:05:17;;;;;;;10.53;6.53;;;;;;;;;;5061113;27;89338;-60
2023/08/25 00:07:47;;;;;;;10.20;6.67;;;;;;;;;;5061271;27;89009;-61
2023/08/25 00:10:15;;;;;;;12.73;6.80;;;;;;;;;;5061636;27;87510;-61
2023/08/25 00:12:44;;;;;;;6.80;4.97;;;;;;;;;;5061485;27;89602;-60
2023/08/25 00:15:12;;;;;;;7.97;5.93;;;;;;;;;;5061782;27;88057;-61
2023/08/25 00:17:40;;;;;;;9.37;6.00;;;;;;;;;;5060761;27;88820;-61
2023/08/25 00:20:12;;;;;;;10.67;6.00;;;;;;;;;;5061493;27;87769;-60
2023/08/25 00:22:43;;;;;;;7.67;5.67;;;;;;;;;;5061409;27;88664;-60
2023/08/25 00:25:15;;;;;;;7.77;6.33;;;;;;;;;;5061066;27;89155;-60
2023/08/25 00:27:43;;;;;;;7.93;5.37;;;;;;;;;;5060132;27;88910;-60
2023/08/25 00:30:13;;;;;;;8.67;5.90;;;;;;;;;;5061999;27;87519;-60
2023/08/25 00:32:41;;;;;;;7.50;5.53;;;;;;;;;;5061535;27;88686;-60
2023/08/25 00:35:10;;;;;;;9.10;6.27;;;;;;;;;;5061444;27;88107;-60
2023/08/25 00:37:38;;;;;;;8.33;6.07;;;;;;;;;;5061837;27;87712;-60
2023/08/25 00:40:10;;;;;;;8.47;5.80;;;;;;;;;;5061903;27;87635;-61
2023/08/25 00:42:39;;;;;;;9.13;5.93;;;;;;;;;;5060657;27;89574;-60
2023/08/25 00:45:08;;;;;;;7.77;6.13;;;;;;;;;;5060242;27;90199;-60
2023/08/25 00:47:36;;;;;;;8.30;6.30;;;;;;;;;;5060462;27;89830;-60
2023/08/25 00:50:05;;;;;;;10.70;6.00;;;;;;;;;;5061536;27;87690;-60
2023/08/25 00:52:35;;;;;;;10.43;6.37;;;;;;;;;;5061216;27;89038;-60
2023/08/25 00:55:04;;;;;;;10.63;5.67;;;;;;;;;;5060773;27;87302;-61
2023/08/25 00:57:33;;;;;;;8.77;5.73;;;;;;;;;;5060161;27;87929;-60
2023/08/25 01:00:04;;;;;;;9.33;5.63;;;;;;;;;;5060570;27;87569;-60
2023/08/25 01:02:33;;;;;;;9.17;6.40;;;;;;;;;;5060538;27;88542;-60
2023/08/25 01:05:04;;;;;;;11.47;6.10;;;;;;;;;;5061063;27;87718;-60
2023/08/25 01:07:33;;;;;;;9.87;7.07;;;;;;;;;;5061258;27;87887;-60
2023/08/25 01:10:01;;;;;;;10.87;6.10;;;;;;;;;;5059436;27;88427;-60
2023/08/25 01:12:32;;;;;;;7.87;5.60;;;;;;;;;;5060155;27;88535;-60
2023/08/25 01:15:05;;;;;;;11.73;6.43;;;;;;;;;;5059857;27;89009;-60
2023/08/25 01:17:37;;;;;;;9.17;6.20;;;;;;;;;;5059903;27;87705;-60
2023/08/25 01:20:07;;;;;;;9.00;5.90;;;;;;;;;;5060706;27;87493;-60
2023/08/25 01:22:39;;;;;;;7.33;5.50;;;;;;;;;;5060552;27;89755;-60
2023/08/25 01:25:21;;;;;;;8.13;5.40;;;;;;;;;;5060623;27;89124;-60
2023/08/25 01:27:49;;;;;;;8.87;5.87;;;;;;;;;;5060748;27;88939;-60
2023/08/25 01:30:19;;;;;;;8.17;5.37;;;;;;;;;;5060880;27;87603;-60
2023/08/25 01:32:48;;;;;;;8.47;5.53;;;;;;;;;;5059300;27;89612;-60
2023/08/25 01:35:16;;;;;;;8.43;5.40;;;;;;;;;;5059607;27;90148;-60
2023/08/25 01:37:48;;;;;;;7.23;5.63;;;;;;;;;;5059427;27;90025;-60
2023/08/25 01:40:19;;;;;;;7.97;5.90;;;;;;;;;;5060757;27;87563;-60
2023/08/25 01:42:48;;;;;;;6.47;4.57;;;;;;;;;;5059847;27;88557;-60
2023/08/25 01:45:17;;;;;;;8.13;5.20;;;;;;;;;;5060264;27;89084;-60
2023/08/25 01:47:46;;;;;;;10.37;6.40;;;;;;;;;;5059661;27;88757;-60
2023/08/25 01:50:14;;;;;;;7.03;4.40;;;;;;;;;;5060010;27;87429;-60
2023/08/25 01:52:42;;;;;;;6.17;5.13;;;;;;;;;;5060798;27;89657;-60
2023/08/25 01:55:11;;;;;;;6.70;4.87;;;;;;;;;;5059698;27;89056;-60
2023/08/25 01:57:39;;;;;;;6.80;5.07;;;;;;;;;;5060187;27;87730;-60
2023/08/25 02:00:09;;;;;;;8.23;4.60;;;;;;;;;;5059437;27;87891;-60
2023/08/25 02:02:38;;;;;;;11.10;5.53;;;;;;;;;;5059613;27;88933;-60
2023/08/25 02:05:09;;;;;;;7.43;4.47;;;;;;;;;;5060183;27;88140;-60
2023/08/25 02:07:38;;;;;;;6.93;4.63;;;;;;;;;;5059902;27;87905;-60
2023/08/25 02:10:07;;;;;;;6.80;4.70;;;;;;;;;;5059804;27;87608;-60
2023/08/25 02:12:36;;;;;;;9.03;4.87;;;;;;;;;;5060224;27;88480;-60
2023/08/25 02:15:04;;;;;;;6.60;4.53;;;;;;;;;;5060005;27;87297;-60
2023/08/25 02:17:34;;;;;;;6.37;4.30;;;;;;;;;;5060541;27;88781;-60
2023/08/25 02:20:05;;;;;;;5.20;4.23;;;;;;;;;;5060693;27;87619;-60
2023/08/25 02:22:34;;;;;;;5.60;4.50;;;;;;;;;;5063533;27;88508;-60
2023/08/25 02:25:03;;;;;;;5.27;4.07;;;;;;;;;;5062797;27;89960;-60
2023/08/25 02:27:32;;;;;;;7.30;4.77;;;;;;;;;;5063131;27;87442;-60
2023/08/25 02:30:00;;;;;;;7.63;5.00;;;;;;;;;;5063386;27;87666;-60
2023/08/25 02:32:28;;;;;;;6.80;4.90;;;;;;;;;;5062548;27;88445;-60
2023/08/25 02:35:00;;;;;;;7.80;5.03;;;;;;;;;;5062925;27;88974;-60
2023/08/25 02:37:30;;;;;;;7.43;4.60;;;;;;;;;;5062973;27;87760;-60
2023/08/25 02:39:58;;;;;;;7.03;4.70;;;;;;;;;;5062961;27;87645;-61
2023/08/25 02:42:26;;;;;;;5.40;4.30;;;;;;;;;;5062168;27;89635;-60
2023/08/25 02:44:57;;;;;;;5.73;4.50;;;;;;;;;;5062681;27;87871;-60
2023/08/25 02:47:26;;;;;;;5.60;4.23;;;;;;;;;;5062483;27;88773;-60
2023/08/25 02:49:54;;;;;;;6.17;5.10;;;;;;;;;;5062510;27;87964;-60
2023/08/25 02:52:25;;;;;;;5.10;3.77;;;;;;;;;;5061963;27;88354;-60
2023/08/25 02:54:53;;;;;;;5.17;4.03;;;;;;;;;;5062170;27;89088;-60
2023/08/25 02:57:22;;;;;;;8.23;4.87;;;;;;;;;;5062843;27;88830;-60
2023/08/25 02:59:50;;;;;;;9.20;5.47;;;;;;;;;;5062574;27;87524;-60
2023/08/25 03:02:20;;;;;;;6.20;4.20;;;;;;;;;;5062508;27;89554;-60
2023/08/25 03:04:49;;;;;;;6.60;4.50;;;;;;;;;;5062280;27;87690;-60
2023/08/25 03:07:17;;;;;;;6.90;4.63;;;;;;;;;;5062283;27;88892;-60
2023/08/25 03:09:47;;;;;;;7.90;4.70;;;;;;;;;;5062751;27;87441;-60
2023/08/25 03:12:15;;;;;;;7.80;5.03;;;;;;;;;;5062536;27;89688;-60
2023/08/25 03:14:44;;;;;;;8.00;4.97;;;;;;;;;;5061772;27;89993;-60
2023/08/25 03:17:12;;;;;;;7.97;4.87;;;;;;;;;;5062816;27;88688;-61
2023/08/25 03:19:41;;;;;;;5.90;4.50;;;;;;;;;;5063297;27;87303;-60
2023/08/25 03:22:10;;;;;;;6.47;4.53;;;;;;;;;;5062649;27;88733;-60
2023/08/25 03:24:38;;;;;;;8.07;4.97;;;;;;;;;;5062577;27;89111;-60
2023/08/25 03:27:09;;;;;;;7.53;5.27;;;;;;;;;;5061828;27;87734;-61
2023/08/25 03:29:38;;;;;;;6.03;4.43;;;;;;;;;;5062906;27;87618;-60
2023/08/25 03:32:08;;;;;;;6.70;5.23;;;;;;;;;;5060881;27;89645;-60
2023/08/25 03:34:37;;;;;;;7.17;5.13;;;;;;;;;;5061711;27;89109;-60
2023/08/25 03:37:07;;;;;;;6.93;5.50;;;;;;;;;;5044010;27;87775;-60
2023/08/25 03:39:35;;;;;;;5.87;4.73;;;;;;;;;;5050692;27;88282;-60
2023/08/25 03:42:04;;;;;;;9.13;5.90;;;;;;;;;;5058411;27;88425;-60
2023/08/25 03:44:36;;;;;;;8.40;4.83;;;;;;;;;;5059439;27;89086;-60
2023/08/25 03:47:04;;;;;;;6.73;5.07;;;;;;;;;;5059113;27;87757;-61
2023/08/25 03:49:34;;;;;;;6.23;4.17;;;;;;;;;;5058799;27;87632;-60
2023/08/25 03:52:02;;;;;;;5.33;4.07;;;;;;;;;;5058686;27;87487;-60
2023/08/25 03:54:31;;;;;;;6.07;4.23;;;;;;;;;;5058968;27;87993;-60
2023/08/25 03:57:03;;;;;;;8.23;4.97;;;;;;;;;;5058108;27;89111;-60
2023/08/25 03:59:31;;;;;;;7.20;5.30;;;;;;;;;;5058293;27;87574;-60
2023/08/25 04:02:01;;;;;;;7.17;4.83;;;;;;;;;;5058550;27;89553;-60
2023/08/25 04:04:32;;;;;;;7.87;4.67;;;;;;;;;;5058218;27;88292;-60
2023/08/25 04:07:01;;;;;;;7.03;4.50;;;;;;;;;;5058646;27;89933;-60
2023/08/25 04:09:29;;;;;;;5.87;4.50;;;;;;;;;;5058578;27;87731;-61
2023/08/25 04:11:58;;;;;;;9.60;5.03;;;;;;;;;;5057988;27;89481;-60
2023/08/25 04:14:26;;;;;;;5.90;4.30;;;;;;;;;;5059039;27;88162;-60
2023/08/25 04:16:54;;;;;;;5.97;4.87;;;;;;;;;;5055785;27;88731;-60
2023/08/25 04:19:24;;;;;;;5.67;4.77;;;;;;;;;;5056801;27;87514;-60
2023/08/25 04:21:53;;;;;;;7.00;4.57;;;;;;;;;;5062118;27;87855;-60
2023/08/25 04:24:22;;;;;;;6.50;4.40;;;;;;;;;;5061701;27;88062;-60
2023/08/25 04:26:53;;;;;;;6.80;4.30;;;;;;;;;;5061862;27;87748;-60
2023/08/25 04:29:22;;;;;;;6.50;4.43;;;;;;;;;;5060806;27;88114;-60
2023/08/25 04:31:50;;;;;;;8.13;4.77;;;;;;;;;;5061277;27;88708;-60
2023/08/25 04:34:19;;;;;;;4.50;3.90;;;;;;;;;;5060718;27;87864;-60
2023/08/25 04:36:48;;;;;;;5.13;3.60;;;;;;;;;;5061474;27;87819;-60
2023/08/25 04:39:18;;;;;;;6.83;4.60;;;;;;;;;;5061193;27;87429;-61
2023/08/25 04:41:48;;;;;;;6.27;4.73;;;;;;;;;;5059926;27;88666;-60
2023/08/25 04:44:16;;;;;;;5.57;4.13;;;;;;;;;;5060787;27;90284;-60
2023/08/25 04:46:44;;;;;;;7.77;4.03;;;;;;;;;;5061668;27;87762;-60
2023/08/25 04:49:15;;;;;;;4.93;3.40;;;;;;;;;;5060865;27;87553;-60
2023/08/25 04:51:44;;;;;;;7.30;4.10;;;;;;;;;;5061336;27;88316;-60
2023/08/25 04:54:14;;;;;;;4.63;4.13;;;;;;;;;;5060047;27;87993;-60
2023/08/25 04:56:42;;;;;;;5.23;3.70;;;;;;;;;;5060995;27;88836;-60
2023/08/25 04:59:11;;;;;;;5.40;3.97;;;;;;;;;;5061158;27;87643;-60
2023/08/25 05:01:39;;;;;;;5.97;3.47;;;;;;;;;;5060972;27;88575;-60
2023/08/25 05:04:11;;;;;;;4.03;3.43;;;;;;;;;;5060997;27;88006;-60
2023/08/25 05:06:39;;;;;;;5.40;3.10;;;;;;;;;;5060374;27;87700;-60
2023/08/25 05:09:09;;;;;;;5.40;3.33;;;;;;;;;;5060498;27;87552;-60
2023/08/25 05:11:39;;;;;;;4.17;3.27;;;;;;;;;;5061879;27;88222;-60
2023/08/25 05:14:11;;;;;;;3.37;3.07;;;;;;;;;;5061001;27;88115;-60
2023/08/25 05:16:40;;;;;;;4.13;3.37;;;;;;;;;;5060423;27;88729;-60
2023/08/25 05:19:11;;;;;;;3.53;2.97;;;;;;;;;;5060385;27;87856;-60
2023/08/25 05:21:43;;;;;;;4.87;2.70;;;;;;;;;;5060697;27;89643;-60
2023/08/25 05:24:21;;;;;;;3.77;3.13;;;;;;;;;;5060404;27;87972;-60
2023/08/25 05:26:52;;;;;;;3.47;2.47;;;;;;;;;;5060195;27;89110;-60
2023/08/25 05:29:20;;;;;;;4.97;3.17;;;;;;;;;;5060809;27;87472;-60
2023/08/25 05:31:49;;;;;;;4.70;2.93;;;;;;;;;;5060792;27;89689;-60
2023/08/25 05:34:19;;;;;;;6.73;2.77;;;;;;;;;;5060823;27;89023;-60
2023/08/25 05:36:47;;;;;;;4.23;2.90;;;;;;;;;;5060534;27;88947;-61
2023/08/25 05:39:18;;;;;;;3.30;2.23;;;;;;;;;;5059929;27;87518;-60
2023/08/25 05:41:46;;;;;;;3.93;2.30;;;;;;;;;;5060064;27;90545;-62
2023/08/25 05:44:16;;;;;;;4.20;3.27;;;;;;;;;;5059542;27;89915;-60
2023/08/25 05:46:47;;;;;;;4.07;2.53;;;;;;;;;;5060278;27;89812;-60
2023/08/25 05:49:17;;;;;;;2.90;2.50;;;;;;;;;;5059978;27;87531;-60
2023/08/25 05:51:45;;;;;;;3.17;2.33;;;;;;;;;;5060509;27;89639;-61
2023/08/25 05:54:15;;;;;;;2.53;2.23;;;;;;;;;;5060487;27;89047;-60
2023/08/25 05:56:43;;;;;;;3.33;2.67;;;;;;;;;;5062977;27;87889;-60
2023/08/25 05:59:12;;;;;;;2.83;2.40;;;;;;;;;;5063867;27;87640;-60
2023/08/25 06:01:43;;;;;;;2.67;2.33;;;;;;;;;;5063192;27;88585;-60
2023/08/25 06:04:12;;;;;;;2.63;2.17;;;;;;;;;;5063524;27;88091;-60
2023/08/25 06:06:41;;;;;;;3.33;2.30;;;;;;;;;;5062692;27;88969;-61
2023/08/25 06:09:11;;;;;;;3.63;2.00;;;;;;;;;;5063724;27;87788;-60
2023/08/25 06:11:39;;;;;;;3.37;2.37;;;;;;;;;;5063495;27;88519;-60
2023/08/25 06:14:08;;;;;;;2.50;1.90;;;;;;;;;;5063055;27;89226;-60
2023/08/25 06:16:38;;;;;;;2.33;2.10;;;;;;;;;;5063119;27;87752;-60
2023/08/25 06:19:08;;;;;;;4.43;2.47;;;;;;;;;;5063914;27;87607;-60
2023/08/25 06:21:36;;;;;;;2.87;2.20;;;;;;;;;;5063113;27;89283;-60
2023/08/25 06:24:06;;;;;;;4.00;2.20;;;;;;;;;;5063440;27;89058;-60
2023/08/25 06:26:37;;;;;;;1.63;1.53;;;;;;;;;;5063278;27;88738;-60
2023/08/25 06:29:05;;;;;;;3.07;1.90;;;;;;;;;;5063670;27;87499;-60
2023/08/25 06:31:35;;;;;;;3.50;2.17;;;;;;;;;;5063719;27;89707;-60
2023/08/25 06:34:04;;;;;;;1.90;1.70;;;;;;;;;;5063071;27;89848;-60
2023/08/25 06:36:33;;;;;;;2.47;1.97;;;;;;;;;;5063055;27;89821;-60
2023/08/25 06:39:03;;;;;;;2.80;1.90;;;;;;;;;;5063284;27;87635;-60
2023/08/25 06:41:32;;;;;;;2.40;1.90;;;;;;;;;;5063070;27;89506;-60
2023/08/25 06:44:00;;;;;;;2.67;1.60;;;;;;;;;;5063001;27;89115;-60
2023/08/25 06:46:33;;;;;;;1.90;1.77;;;;;;;;;;5063186;27;87879;-61
2023/08/25 06:49:02;;;;;;;2.43;1.93;;;;;;;;;;5063067;27;87517;-61
2023/08/25 06:51:32;;;;;;;2.40;1.93;;;;;;;;;;5062986;27;88452;-60
2023/08/25 06:54:03;;;;;;;1.50;1.30;;;;;;;;;;5062434;27;89235;-60
2023/08/25 06:56:34;;;;;;;3.13;1.80;;;;;;;;;;5062753;27;89052;-60
2023/08/25 06:59:04;;;;;;;3.33;1.73;;;;;;;;;;5062274;27;87952;-60
2023/08/25 07:01:32;;;;;;;1.60;1.13;;;;;;;;;;5062978;27;87433;-60
2023/08/25 07:04:01;;;;;;;3.50;2.03;;;;;;;;;;5062594;27;89188;-60
2023/08/25 07:06:29;;;;;;;1.80;1.43;;;;;;;;;;5062420;27;88765;-60
2023/08/25 07:08:58;;;;;;;1.73;1.50;;;;;;;;;;5062554;27;87650;-60
2023/08/25 07:11:27;;;;;;;3.10;1.90;;;;;;;;;;5061755;27;89723;-60
2023/08/25 07:13:57;;;;;;;1.97;1.70;;;;;;;;;;5061730;27;89083;-59
2023/08/25 07:16:26;;;;;;;1.90;1.47;;;;;;;;;;5062213;27;87755;-60
2023/08/25 07:18:55;;;;;;;1.63;1.53;;;;;;;;;;5061855;27;88177;-60
2023/08/25 07:21:25;;;;;;;1.33;1.23;;;;;;;;;;5062934;27;89616;-60
2023/08/25 07:23:55;;;;;;;2.13;1.40;;;;;;;;;;5061631;27;90076;-60
2023/08/25 07:26:26;;;;;;;3.53;1.70;;;;;;;;;;5062773;27;88735;-60
2023/08/25 07:28:56;;;;;;;2.83;1.63;;;;;;;;;;5062639;27;87660;-60
2023/08/25 07:31:24;;;;;;;1.97;1.53;;;;;;;;;;5061409;27;88623;-60
2023/08/25 07:33:53;;;;;;;2.73;1.73;;;;;;;;;;5061500;27;87381;-60
2023/08/25 07:36:21;;;;;;;2.30;1.40;;;;;;;;;;5062416;27;87719;-60
2023/08/25 07:38:50;;;;;;;1.30;1.20;;;;;;;;;;5061665;27;87520;-60
2023/08/25 07:41:21;;;;;;;1.70;1.50;;;;;;;;;;5062287;27;89660;-60
2023/08/25 07:43:51;;;;;;;3.07;1.27;;;;;;;;;;5061636;27;89122;-60
2023/08/25 07:46:22;;;;;;;1.47;1.30;;;;;;;;;;5062514;27;87795;-60
2023/08/25 07:48:51;;;;;;;1.77;1.67;;;;;;;;;;5061157;27;87855;-60
2023/08/25 07:51:20;;;;;;;2.37;1.73;;;;;;;;;;5061721;27;87465;-60
2023/08/25 07:54:08;;;;;;;2.83;1.60;;;;;;;;;;5061908;27;88250;-60
2023/08/25 07:56:37;;;;;;;1.53;1.40;;;;;;;;;;5061599;27;88828;-60
2023/08/25 07:59:06;;;;;;;1.80;1.57;;;;;;;;;;5062079;27;87627;-60
2023/08/25 08:01:36;;;;;;;1.60;1.47;;;;;;;;;;5061210;27;89689;-60
2023/08/25 08:04:04;;;;;;;1.50;1.40;;;;;;;;;;5060893;27;88155;-60
2023/08/25 08:06:35;;;;;;;2.00;1.30;;;;;;;;;;5062021;27;87944;-60
2023/08/25 08:09:06;;;;;;;2.27;1.50;;;;;;;;;;5061771;27;87512;-60
2023/08/25 08:11:36;;;;;;;3.57;1.60;;;;;;;;;;5062002;27;88547;-60
2023/08/25 08:14:04;;;;;;;1.43;1.07;;;;;;;;;;5060844;27;90028;-60
2023/08/25 08:16:33;;;;;;;1.90;1.43;;;;;;;;;;5061419;27;88662;-61
2023/08/25 08:19:12;;;;;;;2.37;1.40;;;;;;;;;;5060814;27;87516;-60
2023/08/25 08:21:40;;;;;;;1.50;1.40;;;;;;;;;;5061449;27;89550;-60
2023/08/25 08:24:09;;;;;;;1.57;1.20;;;;;;;;;;5061344;27;87904;-60
2023/08/25 08:26:40;;;;;;;1.87;1.10;;;;;;;;;;5060715;27;88829;-60
2023/08/25 08:29:09;;;;;;;1.77;1.40;;;;;;;;;;5060704;27;87492;-60
2023/08/25 08:31:40;;;;;;;1.77;1.67;;;;;;;;;;5061863;27;89628;-60
2023/08/25 08:34:10;;;;;;;1.90;1.40;;;;;;;;;;5061155;27;87709;-60
2023/08/25 08:36:38;;;;;;;1.90;1.13;;;;;;;;;;5061501;27;89052;-60
2023/08/25 08:39:07;;;;;;;1.43;1.10;;;;;;;;;;5060855;27;87921;-60
2023/08/25 08:41:37;;;;;;;1.50;1.30;;;;;;;;;;5061366;27;89595;-60
2023/08/25 08:44:06;;;;;;;1.33;1.10;;;;;;;;;;5060663;27;89005;-60
2023/08/25 08:46:35;;;;;;;1.40;1.17;;;;;;;;;;5060616;27;89029;-60
2023/08/25 08:49:04;;;;;;;2.17;1.57;;;;;;;;;;5060981;27;87453;-60
2023/08/25 08:51:33;;;;;;;1.30;1.10;;;;;;;;;;5061056;27;89718;-60
2023/08/25 08:54:04;;;;;;;1.17;1.07;;;;;;;;;;5061252;27;87851;-60
2023/08/25 08:56:33;;;;;;;3.70;1.50;;;;;;;;;;5060607;27;87717;-60
2023/08/25 08:59:03;;;;;;;2.17;1.30;;;;;;;;;;5060370;27;87584;-60
2023/08/25 09:01:31;;;;;;;2.07;1.40;;;;;;;;;;5060060;27;88404;-60
2023/08/25 09:04:02;;;;;;;1.30;1.20;;;;;;;;;;5059449;27;89703;-60
2023/08/25 09:06:31;;;;;;;2.37;1.10;;;;;;;;;;5059586;27;88605;-60
2023/08/25 09:09:04;;;;;;;1.93;1.60;;;;;;;;;;5060341;27;87554;-60
2023/08/25 09:11:32;;;;;;;2.13;1.60;;;;;;;;;;5060490;27;89584;-60
2023/08/25 09:14:04;;;;;;;2.27;1.40;;;;;;;;;;5060271;27;87967;-60
2023/08/25 09:16:33;;;;;;;3.53;1.50;;;;;;;;;;5060255;27;89069;-60
2023/08/25 09:19:04;;;;;;;2.43;1.73;;;;;;;;;;5060541;27;87581;-60
2023/08/25 09:21:32;;;;;;;1.50;1.10;;;;;;;;;;5060185;27;89882;-60
2023/08/25 09:24:04;;;;;;;1.40;1.30;;;;;;;;;;5060218;27;89167;-60
2023/08/25 09:26:37;;;;;;;2.40;1.37;;;;;;;;;;5060268;27;88822;-60
2023/08/25 09:29:06;;;;;;;2.23;1.50;;;;;;;;;;5059176;27;87947;-60
2023/08/25 09:31:36;;;;;;;3.10;1.43;;;;;;;;;;5062789;27;89422;-60
2023/08/25 09:34:04;;;;;;;3.47;1.40;;;;;;;;;;5063764;27;87253;-60
2023/08/25 09:36:33;;;;;;;1.43;1.10;;;;;;;;;;5063963;27;88846;-60
2023/08/25 09:39:07;;;;;;;1.80;1.43;;;;;;;;;;5064311;27;87283;-60
2023/08/25 09:41:35;;;;;;;1.87;1.07;;;;;;;;;;5063495;27;87533;-60
2023/08/25 09:44:04;;;;;;;3.23;1.37;;;;;;;;;;5062515;27;89059;-60
2023/08/25 09:46:33;;;;;;;1.73;1.40;;;;;;;;;;5063795;27;88616;-60
2023/08/25 09:49:02;;;;;;;1.80;1.07;;;;;;;;;;5063582;27;87317;-60
2023/08/25 09:51:31;;;;;;;1.70;1.00;;;;;;;;;;5063419;27;89269;-60
2023/08/25 09:54:01;;;;;;;1.93;1.43;;;;;;;;;;5063258;27;89860;-60
2023/08/25 09:56:30;;;;;;;1.20;1.10;;;;;;;;;;5063484;27;89819;-60
2023/08/25 09:58:59;;;;;;;1.60;1.27;;;;;;;;;;5063043;27;87638;-60
2023/08/25 10:01:27;;;;;;;1.33;1.23;;;;;;;;;;5063091;27;89729;-60
2023/08/25 10:03:58;;;;;;;1.33;1.23;;;;;;;;;;5063334;27;88973;-60
2023/08/25 10:06:28;;;;;;;1.10;1.00;;;;;;;;;;5062801;27;88747;-60
2023/08/25 10:08:57;;;;;;;2.90;1.50;;;;;;;;;;5063342;27;87417;-60
2023/08/25 10:11:26;;;;;;;1.67;1.40;;;;;;;;;;5063236;27;89628;-60
2023/08/25 10:13:57;;;;;;;1.47;1.10;;;;;;;;;;5062783;27;87500;-60
2023/08/25 10:16:27;;;;;;;2.00;1.50;;;;;;;;;;5063724;27;87741;-60
2023/08/25 10:18:56;;;;;;;3.87;1.40;;;;;;;;;;5063181;27;87807;-60
2023/08/25 10:21:24;;;;;;;1.30;1.20;;;;;;;;;;5063248;27;88536;-60
2023/08/25 10:23:55;;;;;;;1.40;1.13;;;;;;;;;;5063267;27;88014;-60
2023/08/25 10:26:24;;;;;;;2.30;1.40;;;;;;;;;;5063489;27;88871;-60
2023/08/25 10:28:53;;;;;;;2.00;1.40;;;;;;;;;;5063326;27;87896;-60
2023/08/25 10:31:25;;;;;;;1.90;1.70;;;;;;;;;;5062966;27;88499;-60
2023/08/25 10:33:54;;;;;;;1.33;1.23;;;;;;;;;;5062909;27;89282;-60
2023/08/25 10:36:23;;;;;;;1.33;1.20;;;;;;;;;;5062973;27;88770;-60
2023/08/25 10:39:07;;;;;;;1.87;1.17;;;;;;;;;;5063827;27;87522;-60
2023/08/25 10:41:36;;;;;;;1.70;1.47;;;;;;;;;;5059507;27;89639;-60
2023/08/25 10:44:04;;;;;;;2.10;1.50;;;;;;;;;;5062210;27;88981;-60
2023/08/25 10:46:37;;;;;;;2.03;1.10;;;;;;;;;;5062464;27;89754;-60
2023/08/25 10:49:16;;;;;;;1.43;1.30;;;;;;;;;;5063068;27;87599;-60
2023/08/25 10:51:47;;;;;;;2.47;1.50;;;;;;;;;;5062503;27;88507;-60
2023/08/25 10:54:18;;;;;;;2.23;1.60;;;;;;;;;;5062856;27;89268;-60
2023/08/25 10:56:52;;;;;;;2.17;1.53;;;;;;;;;;5062976;27;87481;-59
2023/08/25 10:59:24;;;;;;;4.77;1.20;;;;;;;;;;5062876;27;87651;-60
2023/08/25 11:01:59;;;;;;;1.57;1.30;;;;;;;;;;5062991;27;87415;-60
2023/08/25 11:04:29;;;;;;;1.40;1.30;;;;;;;;;;5063045;27;88539;-60
2023/08/25 11:06:58;;;;;;;4.23;1.60;;;;;;;;;;5062845;27;87761;-60
2023/08/25 11:09:32;;;;;;;1.63;1.43;;;;;;;;;;5062429;27;87830;-60
2023/08/25 11:12:03;;;;;;;1.67;1.27;;;;;;;;;;5062190;27;87551;-60
2023/08/25 11:14:33;;;;;;;1.30;1.20;;;;;;;;;;5062285;27;89053;-60
2023/08/25 11:17:04;;;;;;;1.57;1.30;;;;;;;;;;5062568;27;88142;-60
2023/08/25 11:19:33;;;;;;;1.33;1.27;;;;;;;;;;5062807;27;87591;-60
2023/08/25 11:22:02;;;;;;;1.47;1.10;;;;;;;;;;5062113;27;89707;-60
2023/08/25 11:24:31;;;;;;;2.27;1.50;;;;;;;;;;5062941;27;88310;-60
2023/08/25 11:27:06;;;;;;;1.47;1.23;;;;;;;;;;5062441;27;87566;-60
2023/08/25 11:29:34;;;;;;;6.00;1.83;;;;;;;;;;5062067;27;87668;-60
2023/08/25 11:32:06;;;;;;;1.53;1.23;;;;;;;;;;5062045;27;88564;-60
2023/08/25 11:34:36;;;;;;;1.63;1.13;;;;;;;;;;5062049;27;90040;-60
2023/08/25 11:37:04;;;;;;;2.40;1.17;;;;;;;;;;5062650;27;89740;-60
2023/08/25 11:39:34;;;;;;;2.60;1.37;;;;;;;;;;5061796;27;88047;-60
2023/08/25 11:42:05;;;;;;;1.70;1.37;;;;;;;;;;5060400;27;89717;-60
2023/08/25 11:44:33;;;;;;;2.00;1.40;;;;;;;;;;5061795;27;89192;-60
2023/08/25 11:47:01;;;;;;;1.80;1.10;;;;;;;;;;5061950;27;88808;-60
2023/08/25 11:49:31;;;;;;;1.20;1.10;;;;;;;;;;5061591;27;87509;-60
2023/08/25 11:52:01;;;;;;;1.70;1.47;;;;;;;;;;5062192;27;88239;-60
2023/08/25 11:54:29;;;;;;;2.20;1.30;;;;;;;;;;5061263;27;89023;-60
2023/08/25 11:56:58;;;;;;;1.10;1.00;;;;;;;;;;5062123;27;88868;-60
2023/08/25 11:59:29;;;;;;;1.50;1.40;;;;;;;;;;5061549;27;87946;-60
2023/08/25 12:02:02;;;;;;;1.03;1.00;;;;;;;;;;5061673;27;88547;-60
2023/08/25 12:04:31;;;;;;;2.30;1.43;;;;;;;;;;5061172;27;89232;-60
2023/08/25 12:07:02;;;;;;;1.07;1.00;;;;;;;;;;5061445;27;89036;-60
2023/08/25 12:09:31;;;;;;;2.37;1.47;;;;;;;;;;5061519;27;87473;-60
2023/08/25 12:11:59;;;;;;;1.83;1.53;;;;;;;;;;5061785;27;88531;-61
2023/08/25 12:14:28;;;;;;;1.90;1.40;;;;;;;;;;5061502;27;89047;-60
2023/08/25 12:16:59;;;;;;;2.07;1.33;;;;;;;;;;5061314;27;88823;-60
2023/08/25 12:19:27;;;;;;;2.20;1.17;;;;;;;;;;5061379;27;87549;-60
2023/08/25 12:21:57;;;;;;;1.57;1.47;;;;;;;;;;5061451;27;89584;-60
2023/08/25 12:24:26;;;;;;;1.67;1.47;;;;;;;;;;5059966;27;90020;-60
2023/08/25 12:26:54;;;;;;;1.40;1.30;;;;;;;;;;5061680;27;89738;-60
2023/08/25 12:29:23;;;;;;;3.57;1.00;;;;;;;;;;5061746;27;87644;-60
2023/08/25 12:31:53;;;;;;;1.47;1.37;;;;;;;;;;5061248;27;90209;-60
2023/08/25 12:34:21;;;;;;;3.37;1.80;;;;;;;;;;5060868;27;89240;-60
2023/08/25 12:36:52;;;;;;;3.47;1.70;;;;;;;;;;5061367;27;87556;-60
2023/08/25 12:39:22;;;;;;;1.73;1.33;;;;;;;;;;5061123;27;87496;-60
2023/08/25 12:41:50;;;;;;;1.60;1.27;;;;;;;;;;5060552;27;88516;-61
2023/08/25 12:44:21;;;;;;;1.63;1.50;;;;;;;;;;5061128;27;88667;-60
2023/08/25 12:46:49;;;;;;;1.63;1.40;;;;;;;;;;5061570;27;88648;-60
2023/08/25 12:49:21;;;;;;;2.40;1.43;;;;;;;;;;5061277;27;87646;-60
2023/08/25 12:51:49;;;;;;;1.60;1.43;;;;;;;;;;5061215;27;89621;-60
2023/08/25 12:54:21;;;;;;;2.60;1.40;;;;;;;;;;5061293;27;88045;-60
2023/08/25 12:56:54;;;;;;;3.10;1.20;;;;;;;;;;5060493;27;88801;-60
2023/08/25 12:59:23;;;;;;;1.80;1.40;;;;;;;;;;5061464;27;87500;-60
2023/08/25 13:01:51;;;;;;;1.90;1.70;;;;;;;;;;5059907;27;88536;-60
2023/08/25 13:04:19;;;;;;;2.07;1.50;;;;;;;;;;5060561;27;88214;-60
2023/08/25 13:06:48;;;;;;;1.97;1.43;;;;;;;;;;5061151;27;88778;-60
2023/08/25 13:09:16;;;;;;;2.07;1.40;;;;;;;;;;5061044;27;87646;-60
2023/08/25 13:11:45;;;;;;;1.63;1.40;;;;;;;;;;5061248;27;89856;-60
2023/08/25 13:14:14;;;;;;;1.60;1.30;;;;;;;;;;5060514;27;89943;-60
2023/08/25 13:16:43;;;;;;;2.27;1.63;;;;;;;;;;5060879;27;89665;-60
2023/08/25 13:19:13;;;;;;;1.40;1.30;;;;;;;;;;5061486;27;87631;-60
2023/08/25 13:21:41;;;;;;;1.67;1.50;;;;;;;;;;5060061;27;89705;-60
2023/08/25 13:24:10;;;;;;;2.80;1.70;;;;;;;;;;5059894;27;88131;-60
2023/08/25 13:26:41;;;;;;;1.47;1.33;;;;;;;;;;5060301;27;88858;-60
2023/08/25 13:29:11;;;;;;;1.43;1.30;;;;;;;;;;5060526;27;87587;-59
2023/08/25 13:31:40;;;;;;;2.43;1.43;;;;;;;;;;5060351;27;88562;-60
2023/08/25 13:34:09;;;;;;;3.37;1.60;;;;;;;;;;5056244;27;89224;-60
2023/08/25 13:36:37;;;;;;;2.03;1.47;;;;;;;;;;5056945;27;87372;-59
2023/08/25 13:39:08;;;;;;;1.77;1.53;;;;;;;;;;5057351;27;87848;-60
2023/08/25 13:41:41;;;;;;;2.20;1.40;;;;;;;;;;5057653;27;89628;-60
2023/08/25 13:44:09;;;;;;;1.43;1.23;;;;;;;;;;5057007;27;87699;-60
2023/08/25 13:46:39;;;;;;;2.87;1.60;;;;;;;;;;5057496;27;87697;-60
2023/08/25 13:49:10;;;;;;;4.13;1.77;;;;;;;;;;5057878;27;87420;-59
2023/08/25 13:51:39;;;;;;;7.37;1.50;;;;;;;;;;5056951;27;89995;-60
2023/08/25 13:54:08;;;;;;;1.97;1.27;;;;;;;;;;5057029;27;87619;-60
2023/08/25 13:56:37;;;;;;;1.77;1.67;;;;;;;;;;5056813;27;87662;-60
2023/08/25 13:59:06;;;;;;;3.93;1.57;;;;;;;;;;5056910;27;88003;-60
2023/08/25 14:01:34;;;;;;;3.33;1.67;;;;;;;;;;5056827;27;88531;-59
2023/08/25 14:04:06;;;;;;;1.93;1.63;;;;;;;;;;5056748;27;90077;-60
2023/08/25 14:06:37;;;;;;;2.37;1.60;;;;;;;;;;5056826;27;87496;-60
2023/08/25 14:09:06;;;;;;;1.63;1.50;;;;;;;;;;5056918;27;87587;-60
2023/08/25 14:11:35;;;;;;;2.10;1.80;;;;;;;;;;5056610;27;89556;-60
2023/08/25 14:14:04;;;;;;;1.83;1.50;;;;;;;;;;5057242;27;88861;-60
2023/08/25 14:16:36;;;;;;;2.23;1.77;;;;;;;;;;5058499;27;89001;-60
2023/08/25 14:19:09;;;;;;;2.03;1.83;;;;;;;;;;5059956;27;87418;-60
2023/08/25 14:21:39;;;;;;;2.43;2.00;;;;;;;;;;5060183;27;89844;-60
2023/08/25 14:24:07;;;;;;;3.03;2.37;;;;;;;;;;5059902;27;89233;-60
2023/08/25 14:26:36;;;;;;;2.37;2.17;;;;;;;;;;5059825;27;88944;-60
2023/08/25 14:29:05;;;;;;;3.07;2.20;;;;;;;;;;5060617;27;88001;-60
2023/08/25 14:31:34;;;;;;;3.57;2.40;;;;;;;;;;5060570;27;89626;-60
2023/08/25 14:34:05;;;;;;;3.23;2.90;;;;;;;;;;5059680;27;87424;-60
2023/08/25 14:36:36;;;;;;;6.83;3.50;;;;;;;;;;5059604;27;88070;-60
2023/08/25 14:39:08;;;;;;;4.00;3.37;;;;;;;;;;5060295;27;87389;-60
2023/08/25 14:41:36;;;;;;;6.07;3.80;;;;;;;;;;5060278;27;89664;-60
2023/08/25 14:44:07;;;;;;;6.37;3.83;;;;;;;;;;5059583;27;88259;-60
2023/08/25 14:46:38;;;;;;;6.70;4.63;;;;;;;;;;5060003;27;88869;-60
2023/08/25 14:49:07;;;;;;;8.50;5.40;;;;;;;;;;5059716;27;87598;-60
2023/08/25 14:51:37;;;;;;;8.30;5.20;;;;;;;;;;5060026;27;88525;-60
2023/08/25 14:54:08;;;;;;;6.23;4.47;;;;;;;;;;5058634;27;89991;-59
2023/08/25 14:56:36;;;;;;;7.23;5.00;;;;;;;;;;5059219;27;88908;-60